sensor_id;sensor_type;location;lat;lon;timestamp;temperature;humidity
4795;DHT22;2411;47.060;15.064;2024-03-02T00:01:36;7.70;99.90
4795;DHT22;2411;47.060;15.064;2024-03-02T00:04:04;7.70;99.90
4795;DHT22;2411;47.060;15.064;2024-03-02T00:06:34;7.70;99.90
4795;DHT22;2411;47.060;15.064;2024-03-02T00:09:01;7.70;99.90
4795;DHT22;2411;47.060;15.064;2024-03-02T00:11:29;7.70;99.90
4795;DHT22;2411;47.060;15.064;2024-03-02T00:13:57;7.70;99.90
4795;DHT22;2411;47.060;15.064;2024-03-02T00:16:24;7.70;99.90
4795;DHT22;2411;47.060;15.064;2024-03-02T00:18:56;7.70;99.90
4795;DHT22;2411;47.060;15.064;2024-03-02T00:21:27;7.70;99.90
4795;DHT22;2411;47.060;15.064;2024-03-02T00:23:54;7.70;99.90
4795;DHT22;2411;47.060;15.064;2024-03-02T00:26:21;7.70;99.90
4795;DHT22;2411;47.060;15.064;2024-03-02T00:28:48;7.70;99.90
4795;DHT22;2411;47.060;15.064;2024-03-02T00:31:20;7.70;99.90
4795;DHT22;2411;47.060;15.064;2024-03-02T00:33:47;7.70;99.90
4795;DHT22;2411;47.060;15.064;2024-03-02T00:36:22;7.70;99.90
4795;DHT22;2411;47.060;15.064;2024-03-02T00:38:53;7.70;99.90
4795;DHT22;2411;47.060;15.064;2024-03-02T00:49:24;7.70;99.90
4795;DHT22;2411;47.060;15.064;2024-03-02T00:51:54;7.60;99.90
4795;DHT22;2411;47.060;15.064;2024-03-02T00:54:26;7.60;99.90
4795;DHT22;2411;47.060;15.064;2024-03-02T00:56:54;7.60;99.90
4795;DHT22;2411;47.060;15.064;2024-03-02T00:59:23;7.60;99.90
4795;DHT22;2411;47.060;15.064;2024-03-02T01:01:51;7.50;99.90
4795;DHT22;2411;47.060;15.064;2024-03-02T01:04:19;7.50;99.90
4795;DHT22;2411;47.060;15.064;2024-03-02T01:06:46;7.60;99.90
4795;DHT22;2411;47.060;15.064;2024-03-02T01:09:13;7.60;99.90
4795;DHT22;2411;47.060;15.064;2024-03-02T01:11:40;7.60;99.90
4795;DHT22;2411;47.060;15.064;2024-03-02T01:14:08;7.60;99.90
4795;DHT22;2411;47.060;15.064;2024-03-02T01:16:35;7.60;99.90
4795;DHT22;2411;47.060;15.064;2024-03-02T01:19:02;7.50;99.90
4795;DHT22;2411;47.060;15.064;2024-03-02T01:21:29;7.50;99.90
4795;DHT22;2411;47.060;15.064;2024-03-02T01:23:56;7.60;99.90
4795;DHT22;2411;47.060;15.064;2024-03-02T01:26:23;7.60;99.90
4795;DHT22;2411;47.060;15.064;2024-03-02T01:28:50;7.60;99.90
4795;DHT22;2411;47.060;15.064;2024-03-02T01:31:17;7.60;99.90
4795;DHT22;2411;47.060;15.064;2024-03-02T01:33:44;7.60;99.90
4795;DHT22;2411;47.060;15.064;2024-03-02T01:36:11;7.50;99.90
4795;DHT22;2411;47.060;15.064;2024-03-02T01:38:39;7.50;99.90
4795;DHT22;2411;47.060;15.064;2024-03-02T01:41:06;7.50;99.90
4795;DHT22;2411;47.060;15.064;2024-03-02T01:43:33;7.60;99.90
4795;DHT22;2411;47.060;15.064;2024-03-02T01:46:03;7.60;99.90
4795;DHT22;2411;47.060;15.064;2024-03-02T01:48:30;7.50;99.90
4795;DHT22;2411;47.060;15.064;2024-03-02T01:50:57;7.50;99.90
4795;DHT22;2411;47.060;15.064;2024-03-02T01:53:24;7.60;99.90
4795;DHT22;2411;47.060;15.064;2024-03-02T01:55:51;7.60;99.90
4795;DHT22;2411;47.060;15.064;2024-03-02T01:58:18;7.50;99.90
4795;DHT22;2411;47.060;15.064;2024-03-02T02:00:45;7.50;99.90
4795;DHT22;2411;47.060;15.064;2024-03-02T02:03:12;7.50;99.90
4795;DHT22;2411;47.060;15.064;2024-03-02T02:05:42;7.40;99.90
4795;DHT22;2411;47.060;15.064;2024-03-02T02:08:09;7.30;99.90
4795;DHT22;2411;47.060;15.064;2024-03-02T02:10:36;7.30;99.90
4795;DHT22;2411;47.060;15.064;2024-03-02T02:13:03;7.30;99.90
4795;DHT22;2411;47.060;15.064;2024-03-02T02:15:31;7.40;99.90
4795;DHT22;2411;47.060;15.064;2024-03-02T02:17:59;7.40;99.90
4795;DHT22;2411;47.060;15.064;2024-03-02T02:20:26;7.40;99.90
4795;DHT22;2411;47.060;15.064;2024-03-02T02:23:03;7.40;99.90
4795;DHT22;2411;47.060;15.064;2024-03-02T02:25:32;7.40;99.90
4795;DHT22;2411;47.060;15.064;2024-03-02T02:27:59;7.40;99.90
4795;DHT22;2411;47.060;15.064;2024-03-02T02:30:31;7.40;99.90
4795;DHT22;2411;47.060;15.064;2024-03-02T02:32:59;7.30;99.90
4795;DHT22;2411;47.060;15.064;2024-03-02T02:35:26;7.30;99.90
4795;DHT22;2411;47.060;15.064;2024-03-02T02:37:54;7.40;99.90
4795;DHT22;2411;47.060;15.064;2024-03-02T02:40:22;7.30;99.90
4795;DHT22;2411;47.060;15.064;2024-03-02T02:42:50;7.40;99.90
4795;DHT22;2411;47.060;15.064;2024-03-02T02:45:19;7.40;99.90
4795;DHT22;2411;47.060;15.064;2024-03-02T02:47:46;7.30;99.90
4795;DHT22;2411;47.060;15.064;2024-03-02T02:50:14;7.30;99.90
4795;DHT22;2411;47.060;15.064;2024-03-02T02:52:41;7.40;99.90
4795;DHT22;2411;47.060;15.064;2024-03-02T02:55:10;7.30;99.90
4795;DHT22;2411;47.060;15.064;2024-03-02T02:57:39;7.40;99.90
4795;DHT22;2411;47.060;15.064;2024-03-02T03:00:14;7.40;99.90
4795;DHT22;2411;47.060;15.064;2024-03-02T03:02:46;7.40;99.90
4795;DHT22;2411;47.060;15.064;2024-03-02T03:05:15;7.30;99.90
4795;DHT22;2411;47.060;15.064;2024-03-02T03:07:42;7.40;99.90
4795;DHT22;2411;47.060;15.064;2024-03-02T03:10:11;7.40;99.90
4795;DHT22;2411;47.060;15.064;2024-03-02T03:12:41;7.30;99.90
4795;DHT22;2411;47.060;15.064;2024-03-02T03:15:10;7.40;99.90
4795;DHT22;2411;47.060;15.064;2024-03-02T03:17:38;7.40;99.90
4795;DHT22;2411;47.060;15.064;2024-03-02T03:20:06;7.40;99.90
4795;DHT22;2411;47.060;15.064;2024-03-02T03:22:37;7.40;99.90
4795;DHT22;2411;47.060;15.064;2024-03-02T03:25:05;7.40;99.90
4795;DHT22;2411;47.060;15.064;2024-03-02T03:27:32;7.40;99.90
4795;DHT22;2411;47.060;15.064;2024-03-02T03:29:59;7.30;99.90
4795;DHT22;2411;47.060;15.064;2024-03-02T03:32:26;7.40;99.90
4795;DHT22;2411;47.060;15.064;2024-03-02T03:34:53;7.40;99.90
4795;DHT22;2411;47.060;15.064;2024-03-02T03:37:21;7.40;99.90
4795;DHT22;2411;47.060;15.064;2024-03-02T03:39:48;7.40;99.90
4795;DHT22;2411;47.060;15.064;2024-03-02T03:42:15;7.20;99.90
4795;DHT22;2411;47.060;15.064;2024-03-02T03:44:43;7.10;99.90
4795;DHT22;2411;47.060;15.064;2024-03-02T03:47:10;7.10;99.90
4795;DHT22;2411;47.060;15.064;2024-03-02T03:49:37;7.00;99.90
4795;DHT22;2411;47.060;15.064;2024-03-02T03:52:04;7.00;99.90
4795;DHT22;2411;47.060;15.064;2024-03-02T03:54:31;6.90;99.90
4795;DHT22;2411;47.060;15.064;2024-03-02T03:56:58;6.90;99.90
4795;DHT22;2411;47.060;15.064;2024-03-02T03:59:25;6.90;99.90
4795;DHT22;2411;47.060;15.064;2024-03-02T04:01:52;6.90;99.90
4795;DHT22;2411;47.060;15.064;2024-03-02T04:04:20;7.00;99.90
4795;DHT22;2411;47.060;15.064;2024-03-02T04:06:47;6.90;99.90
4795;DHT22;2411;47.060;15.064;2024-03-02T04:09:14;6.90;99.90
4795;DHT22;2411;47.060;15.064;2024-03-02T04:11:41;6.90;99.90
4795;DHT22;2411;47.060;15.064;2024-03-02T04:14:08;7.00;99.90
4795;DHT22;2411;47.060;15.064;2024-03-02T04:16:35;7.10;99.90
4795;DHT22;2411;47.060;15.064;2024-03-02T04:19:02;7.20;99.90
4795;DHT22;2411;47.060;15.064;2024-03-02T04:21:31;7.20;99.90
4795;DHT22;2411;47.060;15.064;2024-03-02T04:23:58;7.10;99.90
4795;DHT22;2411;47.060;15.064;2024-03-02T04:26:26;7.10;99.90
4795;DHT22;2411;47.060;15.064;2024-03-02T04:28:53;7.20;99.90
4795;DHT22;2411;47.060;15.064;2024-03-02T04:31:21;7.20;99.90
4795;DHT22;2411;47.060;15.064;2024-03-02T04:33:48;7.00;99.90
4795;DHT22;2411;47.060;15.064;2024-03-02T04:36:15;7.00;99.90
4795;DHT22;2411;47.060;15.064;2024-03-02T04:38:43;6.90;99.90
4795;DHT22;2411;47.060;15.064;2024-03-02T04:41:10;6.90;99.90
4795;DHT22;2411;47.060;15.064;2024-03-02T04:43:37;6.70;99.90
4795;DHT22;2411;47.060;15.064;2024-03-02T04:46:05;6.60;99.90
4795;DHT22;2411;47.060;15.064;2024-03-02T04:48:34;6.50;99.90
4795;DHT22;2411;47.060;15.064;2024-03-02T04:51:01;6.40;99.90
4795;DHT22;2411;47.060;15.064;2024-03-02T04:53:28;6.40;99.90
4795;DHT22;2411;47.060;15.064;2024-03-02T04:55:55;6.40;99.90
4795;DHT22;2411;47.060;15.064;2024-03-02T04:58:45;6.50;99.90
4795;DHT22;2411;47.060;15.064;2024-03-02T05:01:12;6.40;99.90
4795;DHT22;2411;47.060;15.064;2024-03-02T05:03:39;6.40;99.90
4795;DHT22;2411;47.060;15.064;2024-03-02T05:06:06;6.50;99.90
4795;DHT22;2411;47.060;15.064;2024-03-02T05:08:34;6.40;99.90
4795;DHT22;2411;47.060;15.064;2024-03-02T05:11:01;6.40;99.90
4795;DHT22;2411;47.060;15.064;2024-03-02T05:13:48;6.40;99.90
4795;DHT22;2411;47.060;15.064;2024-03-02T05:16:15;6.50;99.90
4795;DHT22;2411;47.060;15.064;2024-03-02T05:18:42;6.50;99.90
4795;DHT22;2411;47.060;15.064;2024-03-02T05:21:09;6.50;99.90
4795;DHT22;2411;47.060;15.064;2024-03-02T05:23:36;6.50;99.90
4795;DHT22;2411;47.060;15.064;2024-03-02T05:26:04;6.40;99.90
4795;DHT22;2411;47.060;15.064;2024-03-02T05:28:31;6.30;99.90
4795;DHT22;2411;47.060;15.064;2024-03-02T05:30:58;6.40;99.90
4795;DHT22;2411;47.060;15.064;2024-03-02T05:33:25;6.40;99.90
4795;DHT22;2411;47.060;15.064;2024-03-02T05:35:52;6.20;99.90
4795;DHT22;2411;47.060;15.064;2024-03-02T05:38:20;6.20;99.90
4795;DHT22;2411;47.060;15.064;2024-03-02T05:40:48;6.20;99.90
4795;DHT22;2411;47.060;15.064;2024-03-02T05:43:15;6.20;99.90
4795;DHT22;2411;47.060;15.064;2024-03-02T05:45:43;6.40;99.90
4795;DHT22;2411;47.060;15.064;2024-03-02T05:48:10;6.50;99.90
4795;DHT22;2411;47.060;15.064;2024-03-02T05:50:37;6.60;99.90
4795;DHT22;2411;47.060;15.064;2024-03-02T05:53:04;6.60;99.90
4795;DHT22;2411;47.060;15.064;2024-03-02T05:55:31;6.60;99.90
4795;DHT22;2411;47.060;15.064;2024-03-02T05:57:58;6.60;99.90
4795;DHT22;2411;47.060;15.064;2024-03-02T06:00:44;6.60;99.90
4795;DHT22;2411;47.060;15.064;2024-03-02T06:03:11;6.60;99.90
4795;DHT22;2411;47.060;15.064;2024-03-02T06:05:38;6.60;99.90
4795;DHT22;2411;47.060;15.064;2024-03-02T06:08:06;6.50;89.00
4795;DHT22;2411;47.060;15.064;2024-03-02T06:10:33;6.50;17.80
4795;DHT22;2411;47.060;15.064;2024-03-02T06:13:00;6.40;1.00
4795;DHT22;2411;47.060;15.064;2024-03-02T06:15:27;6.40;1.00
4795;DHT22;2411;47.060;15.064;2024-03-02T06:17:54;6.40;1.00
4795;DHT22;2411;47.060;15.064;2024-03-02T06:20:21;6.20;1.00
4795;DHT22;2411;47.060;15.064;2024-03-02T06:22:48;6.10;1.00
4795;DHT22;2411;47.060;15.064;2024-03-02T06:25:15;6.00;1.00
4795;DHT22;2411;47.060;15.064;2024-03-02T06:27:42;5.90;1.00
4795;DHT22;2411;47.060;15.064;2024-03-02T06:30:10;5.90;1.00
4795;DHT22;2411;47.060;15.064;2024-03-02T06:32:38;5.80;1.00
4795;DHT22;2411;47.060;15.064;2024-03-02T06:35:05;5.60;1.10
4795;DHT22;2411;47.060;15.064;2024-03-02T06:37:34;5.60;22.50
4795;DHT22;2411;47.060;15.064;2024-03-02T06:40:01;5.60;28.30
4795;DHT22;2411;47.060;15.064;2024-03-02T06:42:29;5.60;15.80
4795;DHT22;2411;47.060;15.064;2024-03-02T06:45:01;5.70;18.30
4795;DHT22;2411;47.060;15.064;2024-03-02T06:47:28;5.60;24.50
4795;DHT22;2411;47.060;15.064;2024-03-02T06:49:56;5.60;28.40
4795;DHT22;2411;47.060;15.064;2024-03-02T06:52:25;5.80;17.80
4795;DHT22;2411;47.060;15.064;2024-03-02T06:54:52;5.80;4.90
4795;DHT22;2411;47.060;15.064;2024-03-02T06:57:19;5.90;1.00
4795;DHT22;2411;47.060;15.064;2024-03-02T06:59:48;5.90;1.00
4795;DHT22;2411;47.060;15.064;2024-03-02T07:02:17;5.90;10.10
4795;DHT22;2411;47.060;15.064;2024-03-02T07:04:44;5.80;18.90
4795;DHT22;2411;47.060;15.064;2024-03-02T07:07:12;6.00;12.20
4795;DHT22;2411;47.060;15.064;2024-03-02T07:09:39;6.20;1.00
4795;DHT22;2411;47.060;15.064;2024-03-02T07:12:07;6.10;3.50
4795;DHT22;2411;47.060;15.064;2024-03-02T07:14:35;6.10;1.00
4795;DHT22;2411;47.060;15.064;2024-03-02T07:17:20;6.00;2.60
4795;DHT22;2411;47.060;15.064;2024-03-02T07:19:47;6.20;8.70
4795;DHT22;2411;47.060;15.064;2024-03-02T07:22:14;6.40;1.00
4795;DHT22;2411;47.060;15.064;2024-03-02T07:24:44;6.40;1.00
4795;DHT22;2411;47.060;15.064;2024-03-02T07:27:13;6.60;1.00
4795;DHT22;2411;47.060;15.064;2024-03-02T07:29:40;6.70;1.00
4795;DHT22;2411;47.060;15.064;2024-03-02T07:32:08;6.60;1.00
4795;DHT22;2411;47.060;15.064;2024-03-02T07:34:36;6.70;1.00
4795;DHT22;2411;47.060;15.064;2024-03-02T07:37:04;6.70;1.00
4795;DHT22;2411;47.060;15.064;2024-03-02T07:39:32;6.70;1.00
4795;DHT22;2411;47.060;15.064;2024-03-02T07:42:00;6.90;1.00
4795;DHT22;2411;47.060;15.064;2024-03-02T07:44:27;6.80;1.00
4795;DHT22;2411;47.060;15.064;2024-03-02T07:46:54;6.80;1.00
4795;DHT22;2411;47.060;15.064;2024-03-02T07:49:21;6.80;1.00
4795;DHT22;2411;47.060;15.064;2024-03-02T07:51:49;6.90;1.00
4795;DHT22;2411;47.060;15.064;2024-03-02T07:54:16;6.90;1.00
4795;DHT22;2411;47.060;15.064;2024-03-02T07:56:43;6.90;1.00
4795;DHT22;2411;47.060;15.064;2024-03-02T07:59:11;7.00;1.00
4795;DHT22;2411;47.060;15.064;2024-03-02T08:01:38;7.30;1.00
4795;DHT22;2411;47.060;15.064;2024-03-02T08:04:06;7.40;1.00
4795;DHT22;2411;47.060;15.064;2024-03-02T08:06:33;7.40;1.00
4795;DHT22;2411;47.060;15.064;2024-03-02T08:09:01;7.50;1.00
4795;DHT22;2411;47.060;15.064;2024-03-02T08:11:28;7.50;1.00
4795;DHT22;2411;47.060;15.064;2024-03-02T08:13:56;7.70;1.00
4795;DHT22;2411;47.060;15.064;2024-03-02T08:16:23;7.70;1.00
4795;DHT22;2411;47.060;15.064;2024-03-02T08:18:51;7.80;1.00
4795;DHT22;2411;47.060;15.064;2024-03-02T08:21:19;7.90;1.00
4795;DHT22;2411;47.060;15.064;2024-03-02T08:23:46;7.90;1.00
4795;DHT22;2411;47.060;15.064;2024-03-02T08:26:13;7.80;1.00
4795;DHT22;2411;47.060;15.064;2024-03-02T08:28:40;7.90;1.00
4795;DHT22;2411;47.060;15.064;2024-03-02T08:31:08;8.50;1.00
4795;DHT22;2411;47.060;15.064;2024-03-02T08:33:35;9.60;1.00
4795;DHT22;2411;47.060;15.064;2024-03-02T08:36:05;9.40;1.00
4795;DHT22;2411;47.060;15.064;2024-03-02T08:38:32;9.20;1.00
4795;DHT22;2411;47.060;15.064;2024-03-02T08:41:00;9.00;1.00
4795;DHT22;2411;47.060;15.064;2024-03-02T08:43:27;9.10;1.00
4795;DHT22;2411;47.060;15.064;2024-03-02T08:45:54;9.40;1.00
4795;DHT22;2411;47.060;15.064;2024-03-02T08:48:21;9.70;1.00
4795;DHT22;2411;47.060;15.064;2024-03-02T08:50:48;10.00;1.00
4795;DHT22;2411;47.060;15.064;2024-03-02T08:53:16;10.00;1.00
4795;DHT22;2411;47.060;15.064;2024-03-02T08:55:46;9.90;1.00
4795;DHT22;2411;47.060;15.064;2024-03-02T08:58:13;9.80;1.00
4795;DHT22;2411;47.060;15.064;2024-03-02T09:00:41;10.00;1.00
4795;DHT22;2411;47.060;15.064;2024-03-02T09:03:08;9.70;1.00
4795;DHT22;2411;47.060;15.064;2024-03-02T09:05:36;9.60;1.00
4795;DHT22;2411;47.060;15.064;2024-03-02T09:08:03;9.80;1.00
4795;DHT22;2411;47.060;15.064;2024-03-02T09:10:31;10.20;1.00
4795;DHT22;2411;47.060;15.064;2024-03-02T09:13:00;10.20;1.00
4795;DHT22;2411;47.060;15.064;2024-03-02T09:15:27;10.00;1.00
4795;DHT22;2411;47.060;15.064;2024-03-02T09:17:55;10.10;1.00
4795;DHT22;2411;47.060;15.064;2024-03-02T09:20:22;10.20;1.00
4795;DHT22;2411;47.060;15.064;2024-03-02T09:22:49;10.40;1.00
4795;DHT22;2411;47.060;15.064;2024-03-02T09:25:16;9.90;1.00
4795;DHT22;2411;47.060;15.064;2024-03-02T09:27:44;10.10;1.00
4795;DHT22;2411;47.060;15.064;2024-03-02T09:30:11;10.30;1.00
4795;DHT22;2411;47.060;15.064;2024-03-02T09:32:40;10.80;1.00
4795;DHT22;2411;47.060;15.064;2024-03-02T09:35:08;10.70;1.00
4795;DHT22;2411;47.060;15.064;2024-03-02T09:37:36;10.40;1.00
4795;DHT22;2411;47.060;15.064;2024-03-02T09:40:03;10.40;1.00
4795;DHT22;2411;47.060;15.064;2024-03-02T09:42:31;10.40;1.00
4795;DHT22;2411;47.060;15.064;2024-03-02T09:44:59;10.60;1.00
4795;DHT22;2411;47.060;15.064;2024-03-02T09:47:26;10.90;1.00
4795;DHT22;2411;47.060;15.064;2024-03-02T09:49:54;11.10;1.00
4795;DHT22;2411;47.060;15.064;2024-03-02T09:52:23;11.30;1.00
4795;DHT22;2411;47.060;15.064;2024-03-02T09:54:50;11.10;1.00
4795;DHT22;2411;47.060;15.064;2024-03-02T09:57:17;11.10;1.00
4795;DHT22;2411;47.060;15.064;2024-03-02T09:59:45;11.10;1.00
4795;DHT22;2411;47.060;15.064;2024-03-02T10:02:12;11.10;1.00
4795;DHT22;2411;47.060;15.064;2024-03-02T10:04:39;11.10;1.00
4795;DHT22;2411;47.060;15.064;2024-03-02T10:07:17;11.10;1.00
4795;DHT22;2411;47.060;15.064;2024-03-02T10:09:46;11.30;1.00
4795;DHT22;2411;47.060;15.064;2024-03-02T10:12:15;11.50;1.00
4795;DHT22;2411;47.060;15.064;2024-03-02T10:14:42;11.50;1.00
4795;DHT22;2411;47.060;15.064;2024-03-02T10:17:14;11.40;1.00
4795;DHT22;2411;47.060;15.064;2024-03-02T10:19:42;11.50;1.00
4795;DHT22;2411;47.060;15.064;2024-03-02T10:22:10;11.90;1.00
4795;DHT22;2411;47.060;15.064;2024-03-02T10:24:42;11.80;1.00
4795;DHT22;2411;47.060;15.064;2024-03-02T10:27:27;12.00;1.00
4795;DHT22;2411;47.060;15.064;2024-03-02T10:29:54;11.90;1.00
4795;DHT22;2411;47.060;15.064;2024-03-02T10:32:22;12.10;1.00
4795;DHT22;2411;47.060;15.064;2024-03-02T10:34:50;12.00;1.00
4795;DHT22;2411;47.060;15.064;2024-03-02T10:37:17;11.80;1.00
4795;DHT22;2411;47.060;15.064;2024-03-02T10:39:46;11.90;1.00
4795;DHT22;2411;47.060;15.064;2024-03-02T10:42:14;12.00;1.00
4795;DHT22;2411;47.060;15.064;2024-03-02T10:44:42;11.80;1.00
4795;DHT22;2411;47.060;15.064;2024-03-02T10:47:12;11.60;1.00
4795;DHT22;2411;47.060;15.064;2024-03-02T10:49:42;11.50;1.00
4795;DHT22;2411;47.060;15.064;2024-03-02T10:52:12;11.70;1.00
4795;DHT22;2411;47.060;15.064;2024-03-02T10:54:39;11.80;1.00
4795;DHT22;2411;47.060;15.064;2024-03-02T10:57:07;11.90;1.00
4795;DHT22;2411;47.060;15.064;2024-03-02T10:59:51;12.00;1.00
4795;DHT22;2411;47.060;15.064;2024-03-02T11:02:21;12.20;1.00
4795;DHT22;2411;47.060;15.064;2024-03-02T11:04:50;12.40;1.00
4795;DHT22;2411;47.060;15.064;2024-03-02T11:07:21;12.40;1.00
4795;DHT22;2411;47.060;15.064;2024-03-02T11:09:54;12.60;1.00
4795;DHT22;2411;47.060;15.064;2024-03-02T11:12:29;12.60;1.00
4795;DHT22;2411;47.060;15.064;2024-03-02T11:14:56;12.60;1.00
4795;DHT22;2411;47.060;15.064;2024-03-02T11:17:25;12.70;1.00
4795;DHT22;2411;47.060;15.064;2024-03-02T11:19:53;12.80;1.00
4795;DHT22;2411;47.060;15.064;2024-03-02T11:22:20;12.70;1.00
4795;DHT22;2411;47.060;15.064;2024-03-02T11:24:49;12.70;1.00
4795;DHT22;2411;47.060;15.064;2024-03-02T11:33:06;12.70;1.00
4795;DHT22;2411;47.060;15.064;2024-03-02T11:35:42;12.80;1.00
4795;DHT22;2411;47.060;15.064;2024-03-02T11:38:10;12.80;1.00
4795;DHT22;2411;47.060;15.064;2024-03-02T11:40:39;13.00;1.00
4795;DHT22;2411;47.060;15.064;2024-03-02T11:43:07;13.20;1.00
4795;DHT22;2411;47.060;15.064;2024-03-02T11:45:37;13.20;1.00
4795;DHT22;2411;47.060;15.064;2024-03-02T11:48:14;13.30;1.00
4795;DHT22;2411;47.060;15.064;2024-03-02T11:50:43;13.20;1.00
4795;DHT22;2411;47.060;15.064;2024-03-02T11:53:13;13.50;1.00
4795;DHT22;2411;47.060;15.064;2024-03-02T11:55:41;13.60;1.00
4795;DHT22;2411;47.060;15.064;2024-03-02T11:58:10;13.90;1.00
4795;DHT22;2411;47.060;15.064;2024-03-02T12:00:37;14.00;1.00
4795;DHT22;2411;47.060;15.064;2024-03-02T12:03:06;13.80;1.00
4795;DHT22;2411;47.060;15.064;2024-03-02T12:05:35;13.70;1.00
4795;DHT22;2411;47.060;15.064;2024-03-02T12:08:04;13.90;1.00
4795;DHT22;2411;47.060;15.064;2024-03-02T12:10:32;14.10;1.00
4795;DHT22;2411;47.060;15.064;2024-03-02T12:13:06;14.30;1.00
4795;DHT22;2411;47.060;15.064;2024-03-02T12:15:36;14.70;1.00
4795;DHT22;2411;47.060;15.064;2024-03-02T12:18:06;14.50;1.00
4795;DHT22;2411;47.060;15.064;2024-03-02T12:20:34;14.50;1.00
4795;DHT22;2411;47.060;15.064;2024-03-02T12:23:02;14.50;1.00
4795;DHT22;2411;47.060;15.064;2024-03-02T12:25:32;14.10;1.00
4795;DHT22;2411;47.060;15.064;2024-03-02T12:28:03;14.20;1.00
4795;DHT22;2411;47.060;15.064;2024-03-02T12:30:32;14.40;1.00
4795;DHT22;2411;47.060;15.064;2024-03-02T12:33:02;14.40;1.00
4795;DHT22;2411;47.060;15.064;2024-03-02T12:35:29;14.60;1.00
4795;DHT22;2411;47.060;15.064;2024-03-02T12:37:56;14.60;1.00
4795;DHT22;2411;47.060;15.064;2024-03-02T12:40:24;14.40;1.00
4795;DHT22;2411;47.060;15.064;2024-03-02T12:42:51;14.70;1.00
4795;DHT22;2411;47.060;15.064;2024-03-02T12:45:19;14.50;1.00
4795;DHT22;2411;47.060;15.064;2024-03-02T12:47:52;14.60;1.00
4795;DHT22;2411;47.060;15.064;2024-03-02T12:50:21;14.70;1.00
4795;DHT22;2411;47.060;15.064;2024-03-02T12:52:55;14.50;1.00
4795;DHT22;2411;47.060;15.064;2024-03-02T12:55:23;14.60;1.00
4795;DHT22;2411;47.060;15.064;2024-03-02T12:57:51;14.20;1.00
4795;DHT22;2411;47.060;15.064;2024-03-02T13:00:20;14.40;1.00
4795;DHT22;2411;47.060;15.064;2024-03-02T13:02:48;14.50;1.00
4795;DHT22;2411;47.060;15.064;2024-03-02T13:05:19;14.60;1.00
4795;DHT22;2411;47.060;15.064;2024-03-02T13:07:47;14.60;1.00
4795;DHT22;2411;47.060;15.064;2024-03-02T13:10:16;14.80;1.00
4795;DHT22;2411;47.060;15.064;2024-03-02T13:12:43;14.80;1.00
4795;DHT22;2411;47.060;15.064;2024-03-02T13:15:11;14.70;1.00
4795;DHT22;2411;47.060;15.064;2024-03-02T13:17:44;14.90;1.00
4795;DHT22;2411;47.060;15.064;2024-03-02T13:20:13;14.70;1.00
4795;DHT22;2411;47.060;15.064;2024-03-02T13:22:41;14.70;1.00
4795;DHT22;2411;47.060;15.064;2024-03-02T13:25:09;14.80;1.00
4795;DHT22;2411;47.060;15.064;2024-03-02T13:27:38;14.60;1.00
4795;DHT22;2411;47.060;15.064;2024-03-02T13:30:06;14.20;1.00
4795;DHT22;2411;47.060;15.064;2024-03-02T13:32:36;13.80;1.00
4795;DHT22;2411;47.060;15.064;2024-03-02T13:35:03;14.00;1.00
4795;DHT22;2411;47.060;15.064;2024-03-02T13:37:31;14.30;1.00
4795;DHT22;2411;47.060;15.064;2024-03-02T13:39:58;14.60;1.00
4795;DHT22;2411;47.060;15.064;2024-03-02T13:42:25;14.90;1.00
4795;DHT22;2411;47.060;15.064;2024-03-02T13:44:52;15.20;1.00
4795;DHT22;2411;47.060;15.064;2024-03-02T13:47:19;15.10;1.00
4795;DHT22;2411;47.060;15.064;2024-03-02T13:49:48;15.10;1.00
4795;DHT22;2411;47.060;15.064;2024-03-02T13:52:15;15.40;1.00
4795;DHT22;2411;47.060;15.064;2024-03-02T13:54:47;15.30;1.00
4795;DHT22;2411;47.060;15.064;2024-03-02T13:57:14;15.40;1.00
4795;DHT22;2411;47.060;15.064;2024-03-02T13:59:43;15.30;1.00
4795;DHT22;2411;47.060;15.064;2024-03-02T14:02:11;15.10;1.00
4795;DHT22;2411;47.060;15.064;2024-03-02T14:04:39;15.00;1.00
4795;DHT22;2411;47.060;15.064;2024-03-02T14:07:07;14.70;1.00
4795;DHT22;2411;47.060;15.064;2024-03-02T14:09:34;14.50;1.00
4795;DHT22;2411;47.060;15.064;2024-03-02T14:12:02;14.50;1.00
4795;DHT22;2411;47.060;15.064;2024-03-02T14:14:29;14.40;1.00
4795;DHT22;2411;47.060;15.064;2024-03-02T14:16:57;14.10;1.00
4795;DHT22;2411;47.060;15.064;2024-03-02T14:19:27;14.10;1.00
4795;DHT22;2411;47.060;15.064;2024-03-02T14:21:54;14.00;1.00
4795;DHT22;2411;47.060;15.064;2024-03-02T14:24:22;13.80;1.00
4795;DHT22;2411;47.060;15.064;2024-03-02T14:26:53;13.70;1.00
4795;DHT22;2411;47.060;15.064;2024-03-02T14:29:31;13.70;1.00
4795;DHT22;2411;47.060;15.064;2024-03-02T14:32:06;13.70;1.00
4795;DHT22;2411;47.060;15.064;2024-03-02T14:34:33;14.00;1.00
4795;DHT22;2411;47.060;15.064;2024-03-02T14:37:02;14.40;1.00
4795;DHT22;2411;47.060;15.064;2024-03-02T14:39:30;14.60;1.00
4795;DHT22;2411;47.060;15.064;2024-03-02T14:42:01;14.70;1.00
4795;DHT22;2411;47.060;15.064;2024-03-02T14:44:29;14.90;1.00
4795;DHT22;2411;47.060;15.064;2024-03-02T14:46:56;14.90;1.00
4795;DHT22;2411;47.060;15.064;2024-03-02T14:49:26;15.00;1.00
4795;DHT22;2411;47.060;15.064;2024-03-02T14:51:53;14.90;1.00
4795;DHT22;2411;47.060;15.064;2024-03-02T14:54:21;14.60;1.00
4795;DHT22;2411;47.060;15.064;2024-03-02T14:56:48;14.60;1.00
4795;DHT22;2411;47.060;15.064;2024-03-02T14:59:16;14.20;1.00
4795;DHT22;2411;47.060;15.064;2024-03-02T15:01:44;13.80;1.00
4795;DHT22;2411;47.060;15.064;2024-03-02T15:04:12;13.60;1.00
4795;DHT22;2411;47.060;15.064;2024-03-02T15:06:39;13.20;1.00
4795;DHT22;2411;47.060;15.064;2024-03-02T15:09:07;13.10;1.00
4795;DHT22;2411;47.060;15.064;2024-03-02T15:11:34;12.90;1.00
4795;DHT22;2411;47.060;15.064;2024-03-02T15:14:02;12.70;1.00
4795;DHT22;2411;47.060;15.064;2024-03-02T15:16:29;12.60;1.00
4795;DHT22;2411;47.060;15.064;2024-03-02T15:18:56;12.60;1.00
4795;DHT22;2411;47.060;15.064;2024-03-02T15:21:23;12.50;1.00
4795;DHT22;2411;47.060;15.064;2024-03-02T15:23:50;12.50;1.00
4795;DHT22;2411;47.060;15.064;2024-03-02T15:26:17;12.60;1.00
4795;DHT22;2411;47.060;15.064;2024-03-02T15:28:44;12.30;1.00
4795;DHT22;2411;47.060;15.064;2024-03-02T15:31:11;12.20;1.00
4795;DHT22;2411;47.060;15.064;2024-03-02T15:33:39;12.30;1.00
4795;DHT22;2411;47.060;15.064;2024-03-02T15:36:07;12.20;1.00
4795;DHT22;2411;47.060;15.064;2024-03-02T15:38:34;12.20;1.00
4795;DHT22;2411;47.060;15.064;2024-03-02T15:41:08;12.00;1.00
4795;DHT22;2411;47.060;15.064;2024-03-02T15:43:35;12.10;1.00
4795;DHT22;2411;47.060;15.064;2024-03-02T15:46:06;12.00;1.00
4795;DHT22;2411;47.060;15.064;2024-03-02T15:48:34;12.10;1.00
4795;DHT22;2411;47.060;15.064;2024-03-02T15:51:02;12.00;1.00
4795;DHT22;2411;47.060;15.064;2024-03-02T15:53:32;12.00;1.00
4795;DHT22;2411;47.060;15.064;2024-03-02T15:56:00;12.10;1.00
4795;DHT22;2411;47.060;15.064;2024-03-02T15:58:27;12.00;1.00
4795;DHT22;2411;47.060;15.064;2024-03-02T16:00:54;11.90;1.00
4795;DHT22;2411;47.060;15.064;2024-03-02T16:03:22;11.90;1.00
4795;DHT22;2411;47.060;15.064;2024-03-02T16:05:48;11.60;1.00
4795;DHT22;2411;47.060;15.064;2024-03-02T16:08:16;11.60;1.00
4795;DHT22;2411;47.060;15.064;2024-03-02T16:10:43;11.50;1.00
4795;DHT22;2411;47.060;15.064;2024-03-02T16:13:10;11.40;1.00
4795;DHT22;2411;47.060;15.064;2024-03-02T16:15:37;11.30;1.00
4795;DHT22;2411;47.060;15.064;2024-03-02T16:18:04;11.20;1.00
4795;DHT22;2411;47.060;15.064;2024-03-02T16:20:31;11.10;1.00
4795;DHT22;2411;47.060;15.064;2024-03-02T16:22:58;11.00;1.00
4795;DHT22;2411;47.060;15.064;2024-03-02T16:25:25;10.90;1.00